Time;durP1;ratioP1;P1;durP2;ratioP2;P2;SDS_P1;SDS_P2;PMS_P1;PMS_P2;Temp;Humidity;BMP_temperature;BMP_pressure;BME280_temperature;BME280_humidity;BME280_pressure;Samples;Min_cycle;Max_cycle;Signal;HPM_P1;HPM_P2
2022/04/17 00:02:05;;;;;;;4.28;2.20;;;5.50;74.40;;;;;;5050642;28;20025;-77
2022/04/17 00:04:31;;;;;;;3.42;2.30;;;5.40;74.90;;;;;;5051884;28;20103;-77
2022/04/17 00:06:56;;;;;;;3.75;2.30;;;5.40;74.70;;;;;;5050846;28;20064;-77
2022/04/17 00:09:22;;;;;;;3.90;2.35;;;5.40;74.80;;;;;;5051606;28;20090;-77
2022/04/17 00:11:48;;;;;;;3.08;1.95;;;5.40;74.90;;;;;;5052096;28;20126;-78
2022/04/17 00:14:14;;;;;;;4.25;2.40;;;5.30;75.20;;;;;;5054607;28;20029;-78
2022/04/17 00:16:40;;;;;;;5.38;2.15;;;5.30;76.40;;;;;;5054798;28;20033;-77
2022/04/17 00:19:06;;;;;;;4.25;2.88;;;5.20;76.80;;;;;;5055302;28;20037;-77
2022/04/17 00:21:33;;;;;;;4.93;2.72;;;5.20;76.40;;;;;;5055720;28;20021;-77
2022/04/17 00:23:58;;;;;;;6.18;3.13;;;5.20;76.20;;;;;;5054576;28;20040;-78
2022/04/17 00:26:24;;;;;;;6.95;3.28;;;5.30;76.10;;;;;;5054190;28;20470;-77
2022/04/17 00:28:50;;;;;;;4.05;2.60;;;5.20;76.10;;;;;;5053370;28;20032;-77
2022/04/17 00:31:15;;;;;;;4.68;2.30;;;5.20;76.40;;;;;;5055238;28;20021;-77
2022/04/17 00:33:41;;;;;;;4.72;2.05;;;5.20;76.90;;;;;;5054581;28;20111;-77
2022/04/17 00:36:06;;;;;;;3.63;2.40;;;5.10;77.70;;;;;;5055336;28;20459;-78
2022/04/17 00:38:32;;;;;;;3.15;2.00;;;5.00;78.50;;;;;;5055498;28;20051;-77
2022/04/17 00:40:58;;;;;;;2.97;2.03;;;4.90;79.20;;;;;;5054450;28;20413;-77
2022/04/17 00:43:25;;;;;;;2.95;1.92;;;4.80;79.70;;;;;;5055092;28;20032;-77
2022/04/17 00:45:52;;;;;;;3.08;2.03;;;4.70;80.90;;;;;;5053155;28;20382;-77
2022/04/17 00:48:18;;;;;;;3.28;2.15;;;4.60;82.00;;;;;;5055046;28;20025;-78
2022/04/17 00:50:45;;;;;;;4.85;3.13;;;4.50;83.30;;;;;;5053819;28;20055;-77
2022/04/17 00:53:12;;;;;;;5.10;2.35;;;4.40;85.20;;;;;;5055034;28;20024;-78
2022/04/17 00:55:38;;;;;;;3.60;2.22;;;4.30;86.50;;;;;;5053232;28;20037;-77
2022/04/17 00:58:04;;;;;;;3.67;2.30;;;4.30;88.70;;;;;;5055032;28;20036;-77
2022/04/17 01:00:29;;;;;;;2.83;1.95;;;4.20;90.20;;;;;;5054817;28;20029;-77
2022/04/17 01:02:55;;;;;;;4.55;2.25;;;4.10;90.70;;;;;;5054021;28;20025;-78
2022/04/17 01:05:21;;;;;;;5.00;2.90;;;4.00;91.40;;;;;;5053379;28;20072;-77
2022/04/17 01:07:47;;;;;;;4.70;2.30;;;4.00;92.20;;;;;;5053957;28;20033;-77
2022/04/17 01:10:13;;;;;;;2.60;2.30;;;3.90;93.20;;;;;;5054700;28;20044;-77
2022/04/17 01:12:38;;;;;;;2.95;2.20;;;3.90;94.20;;;;;;5053851;28;20033;-77
2022/04/17 01:15:05;;;;;;;4.85;2.33;;;3.80;94.90;;;;;;5052976;28;20048;-77
2022/04/17 01:17:30;;;;;;;4.80;2.35;;;3.70;95.60;;;;;;5054636;28;20033;-77
2022/04/17 01:19:56;;;;;;;3.35;2.53;;;3.70;96.80;;;;;;5053733;28;20275;-77
2022/04/17 01:22:22;;;;;;;4.00;2.35;;;3.70;97.20;;;;;;5054898;28;20029;-77
2022/04/17 01:27:36;;;;;;;4.88;2.47;;;3.60;98.00;;;;;;5054106;28;20540;-77
2022/04/17 01:30:03;;;;;;;3.85;2.33;;;3.50;98.50;;;;;;5053515;28;20519;-77
2022/04/17 01:32:29;;;;;;;5.50;3.15;;;3.50;98.70;;;;;;5054230;28;20021;-77
2022/04/17 01:34:55;;;;;;;5.32;2.85;;;3.50;99.00;;;;;;5053285;28;20029;-77
2022/04/17 01:37:20;;;;;;;3.35;2.50;;;3.50;99.30;;;;;;5053859;28;20031;-77
2022/04/17 01:39:46;;;;;;;4.82;2.38;;;3.40;99.90;;;;;;5053353;28;20025;-78
2022/04/17 01:42:13;;;;;;;3.83;2.50;;;3.50;99.90;;;;;;5053940;28;20117;-77
2022/04/17 01:44:39;;;;;;;4.57;2.70;;;3.50;99.90;;;;;;5052820;28;20079;-78
2022/04/17 01:47:05;;;;;;;3.95;2.60;;;3.30;99.90;;;;;;5053557;28;20040;-77
2022/04/17 01:49:31;;;;;;;3.85;2.80;;;3.30;99.90;;;;;;5053942;28;20053;-77
2022/04/17 01:51:57;;;;;;;3.67;2.33;;;3.30;99.90;;;;;;5051530;28;20081;-77
2022/04/17 01:54:25;;;;;;;4.10;2.65;;;3.30;99.90;;;;;;5054159;28;20029;-77
2022/04/17 01:56:51;;;;;;;5.47;3.58;;;3.20;99.90;;;;;;5051693;28;20025;-78
2022/04/17 01:59:18;;;;;;;3.20;2.80;;;3.20;99.90;;;;;;5052499;28;20032;-78
2022/04/17 02:01:44;;;;;;;3.50;2.53;;;3.20;99.90;;;;;;5053274;28;20039;-77
2022/04/17 02:04:10;;;;;;;4.88;2.40;;;3.20;99.90;;;;;;5053771;28;20078;-77
2022/04/17 02:06:39;;;;;;;4.07;2.65;;;3.20;99.90;;;;;;5052368;28;20035;-77
2022/04/17 02:09:08;;;;;;;3.80;2.72;;;3.20;99.90;;;;;;5052692;28;20497;-77
2022/04/17 02:11:34;;;;;;;4.30;2.70;;;3.10;99.90;;;;;;5053220;28;20458;-77
2022/04/17 02:14:00;;;;;;;6.95;2.95;;;3.20;99.90;;;;;;5052723;28;20029;-77
2022/04/17 02:16:26;;;;;;;4.20;2.92;;;3.00;99.90;;;;;;5053458;28;20040;-78
2022/04/17 02:18:52;;;;;;;6.88;3.22;;;3.00;99.90;;;;;;5052353;28;20029;-77
2022/04/17 02:21:19;;;;;;;4.70;3.03;;;3.00;99.90;;;;;;5053368;28;20190;-77
2022/04/17 02:23:45;;;;;;;5.95;2.97;;;3.00;99.90;;;;;;5051265;28;20033;-77
2022/04/17 02:26:13;;;;;;;6.93;3.28;;;2.90;99.90;;;;;;5053243;28;20036;-77
2022/04/17 02:28:40;;;;;;;3.92;2.47;;;2.90;99.90;;;;;;5053175;28;20032;-77
2022/04/17 02:31:08;;;;;;;5.00;2.80;;;2.80;99.90;;;;;;5052165;28;20470;-77
2022/04/17 02:33:34;;;;;;;4.18;3.13;;;2.80;99.90;;;;;;5054708;28;20362;-77
2022/04/17 02:36:00;;;;;;;5.38;2.88;;;2.80;99.90;;;;;;5051406;28;20115;-78
2022/04/17 02:38:27;;;;;;;4.00;2.92;;;2.80;99.90;;;;;;5035333;28;20058;-77
2022/04/17 02:40:54;;;;;;;3.85;2.78;;;2.70;99.90;;;;;;5052526;28;20017;-77
2022/04/17 02:43:20;;;;;;;4.38;3.10;;;2.70;99.90;;;;;;5052772;28;20052;-77
2022/04/17 02:45:45;;;;;;;4.38;3.10;;;2.70;99.90;;;;;;5052033;28;20036;-77
2022/04/17 02:48:11;;;;;;;5.47;3.25;;;2.70;99.90;;;;;;5051384;28;20029;-77
2022/04/17 02:50:37;;;;;;;4.53;3.20;;;2.70;99.90;;;;;;5052191;28;20033;-77
2022/04/17 02:53:03;;;;;;;4.60;3.17;;;2.70;99.90;;;;;;5052122;28;20048;-77
2022/04/17 02:55:29;;;;;;;8.75;3.60;;;2.70;99.90;;;;;;5052747;28;20498;-77
2022/04/17 02:57:55;;;;;;;4.63;2.95;;;2.70;99.90;;;;;;5051828;28;20040;-77
2022/04/17 03:00:21;;;;;;;4.93;3.03;;;2.70;99.90;;;;;;5052543;28;20028;-77
2022/04/17 03:05:38;;;;;;;5.35;3.53;;;2.60;99.90;;;;;;5052212;28;20036;-76
2022/04/17 03:08:05;;;;;;;5.18;3.47;;;2.60;99.90;;;;;;5051217;28;20619;-77
2022/04/17 03:10:31;;;;;;;4.15;3.03;;;2.60;99.90;;;;;;5052259;28;20064;-79
2022/04/17 03:12:57;;;;;;;4.00;3.35;;;2.60;99.90;;;;;;5051657;28;20370;-78
2022/04/17 03:15:23;;;;;;;8.10;3.97;;;2.50;99.90;;;;;;5052169;28;20082;-77
2022/04/17 03:17:49;;;;;;;5.07;3.22;;;2.50;99.90;;;;;;5050498;28;20378;-78
2022/04/17 03:20:15;;;;;;;5.20;3.47;;;2.50;99.90;;;;;;5052363;28;20029;-77
2022/04/17 03:22:41;;;;;;;4.78;3.28;;;2.50;99.90;;;;;;5053407;28;20032;-78
2022/04/17 03:25:08;;;;;;;4.53;3.13;;;2.50;99.90;;;;;;5057181;28;20048;-78
2022/04/17 03:27:34;;;;;;;4.35;3.20;;;2.40;99.90;;;;;;5060063;28;20049;-78
2022/04/17 03:29:59;;;;;;;5.05;3.78;;;2.40;99.90;;;;;;5057386;28;20028;-78
2022/04/17 03:32:25;;;;;;;6.20;3.60;;;2.40;99.90;;;;;;5053774;28;20455;-78
2022/04/17 03:34:51;;;;;;;4.80;3.53;;;2.30;99.90;;;;;;5051259;28;20444;-78
2022/04/17 03:37:16;;;;;;;5.32;3.50;;;2.20;99.90;;;;;;5052391;28;20033;-78
2022/04/17 03:39:43;;;;;;;5.15;3.30;;;2.20;99.90;;;;;;5052274;28;20025;-78
2022/04/17 03:42:09;;;;;;;5.68;3.38;;;2.20;99.90;;;;;;5051259;28;20021;-78
2022/04/17 03:44:35;;;;;;;4.82;3.70;;;2.10;99.90;;;;;;5052317;28;20369;-78
2022/04/17 03:47:01;;;;;;;5.35;3.80;;;2.10;99.90;;;;;;5052757;28;20108;-78
2022/04/17 03:49:27;;;;;;;5.50;3.83;;;2.00;99.90;;;;;;5055718;28;20473;-78
2022/04/17 03:51:52;;;;;;;6.75;3.65;;;2.00;99.90;;;;;;5055100;28;20057;-78
2022/04/17 03:54:19;;;;;;;6.15;3.92;;;2.00;99.90;;;;;;5056448;28;20043;-77
2022/04/17 03:56:47;;;;;;;5.95;3.88;;;2.00;99.90;;;;;;5054701;28;20048;-77
2022/04/17 03:59:13;;;;;;;6.15;3.78;;;1.90;99.90;;;;;;5055241;28;20066;-77
2022/04/17 04:01:38;;;;;;;7.30;4.03;;;1.90;99.90;;;;;;5054174;28;20039;-77
2022/04/17 04:04:06;;;;;;;4.82;3.83;;;1.90;99.90;;;;;;5055258;28;20021;-78
2022/04/17 04:06:32;;;;;;;7.55;4.45;;;1.80;99.90;;;;;;5056016;28;20036;-76
2022/04/17 04:08:58;;;;;;;4.80;3.78;;;1.80;99.90;;;;;;5054617;28;20028;-77
2022/04/17 04:11:23;;;;;;;7.15;4.55;;;1.80;99.90;;;;;;5054383;28;20025;-77
2022/04/17 04:13:49;;;;;;;7.45;4.78;;;1.80;99.90;;;;;;5055029;28;20029;-77
2022/04/17 04:16:15;;;;;;;5.28;3.75;;;1.70;99.90;;;;;;5055279;28;20032;-77
2022/04/17 04:18:40;;;;;;;6.95;4.25;;;1.70;99.90;;;;;;5055693;28;20071;-77
2022/04/17 04:21:06;;;;;;;4.68;3.65;;;1.70;99.90;;;;;;5054585;28;20036;-77
2022/04/17 04:23:33;;;;;;;5.03;3.97;;;1.70;99.90;;;;;;5055289;28;20114;-77
2022/04/17 04:25:59;;;;;;;7.05;4.07;;;1.70;99.90;;;;;;5053420;28;20032;-78
2022/04/17 04:28:36;;;;;;;7.10;4.53;;;1.70;99.90;;;;;;5055883;28;20028;-78
2022/04/17 04:31:06;;;;;;;8.57;4.28;;;1.60;99.90;;;;;;5054737;28;20382;-78
2022/04/17 04:33:33;;;;;;;6.40;4.00;;;1.60;99.90;;;;;;5054006;28;20032;-78
2022/04/17 04:35:59;;;;;;;7.45;4.20;;;1.60;99.90;;;;;;5054501;28;20033;-77
2022/04/17 04:38:25;;;;;;;6.18;3.60;;;1.60;99.90;;;;;;5055299;28;20191;-77
2022/04/17 04:40:51;;;;;;;6.28;3.78;;;1.60;99.90;;;;;;5054760;28;20037;-78
2022/04/17 04:43:17;;;;;;;7.03;4.30;;;1.60;99.90;;;;;;5053756;28;20021;-77
2022/04/17 04:51:12;;;;;;;5.68;3.95;;;1.60;99.90;;;;;;5053859;28;20691;-77
2022/04/17 04:53:37;;;;;;;5.35;4.20;;;1.60;99.90;;;;;;5055010;28;20107;-78
2022/04/17 04:56:03;;;;;;;5.60;3.55;;;1.60;99.90;;;;;;5054402;28;20120;-78
2022/04/17 04:58:29;;;;;;;6.07;4.20;;;1.60;99.90;;;;;;5054191;28;20040;-77
2022/04/17 05:00:55;;;;;;;8.10;3.78;;;1.70;99.90;;;;;;5053849;28;20025;-77
2022/04/17 05:03:20;;;;;;;4.78;3.90;;;1.70;99.90;;;;;;5054950;28;20060;-77
2022/04/17 05:05:46;;;;;;;13.90;5.72;;;1.70;99.90;;;;;;5054747;28;20466;-78
2022/04/17 05:08:12;;;;;;;11.32;5.50;;;1.70;99.90;;;;;;5053764;28;20247;-77
2022/04/17 05:10:38;;;;;;;6.50;4.45;;;1.80;99.90;;;;;;5053441;28;20170;-77
2022/04/17 05:13:05;;;;;;;11.07;5.18;;;1.90;99.90;;;;;;5052590;28;20033;-76
2022/04/17 05:15:30;;;;;;;8.15;5.03;;;1.90;99.90;;;;;;5054718;28;20028;-77
2022/04/17 05:17:56;;;;;;;6.95;4.65;;;2.00;99.90;;;;;;5052513;28;20025;-77
2022/04/17 05:20:22;;;;;;;6.22;4.15;;;2.10;99.90;;;;;;5054412;28;20402;-77
2022/04/17 05:22:56;;;;;;;6.63;4.07;;;2.10;99.90;;;;;;5053272;28;20029;-77
2022/04/17 05:25:21;;;;;;;6.20;3.97;;;2.20;99.90;;;;;;5054277;28;20123;-77
2022/04/17 05:27:47;;;;;;;6.20;4.35;;;2.30;99.90;;;;;;5053918;28;20108;-77
2022/04/17 05:30:13;;;;;;;6.05;4.18;;;2.40;99.90;;;;;;5053685;28;20051;-77
2022/04/17 05:32:39;;;;;;;5.07;3.58;;;2.50;99.90;;;;;;5054176;28;20040;-77
2022/04/17 05:35:05;;;;;;;8.18;3.88;;;2.60;99.90;;;;;;5053341;28;20027;-77
2022/04/17 05:37:31;;;;;;;5.25;3.70;;;2.70;99.90;;;;;;5052775;28;20029;-77
2022/04/17 05:39:57;;;;;;;4.45;3.60;;;2.80;99.90;;;;;;5053147;28;20025;-77
2022/04/17 05:42:22;;;;;;;4.63;3.67;;;3.00;99.90;;;;;;5054198;28;20032;-77
2022/04/17 05:44:49;;;;;;;6.22;3.72;;;3.20;99.90;;;;;;5053537;28;20025;-77
2022/04/17 05:47:15;;;;;;;6.57;3.38;;;3.30;99.90;;;;;;5052773;28;20624;-77
2022/04/17 05:49:41;;;;;;;6.32;3.20;;;3.40;99.90;;;;;;5053669;28;20168;-77
2022/04/17 05:52:07;;;;;;;3.97;2.92;;;3.60;99.90;;;;;;5051357;28;20136;-77
2022/04/17 05:54:33;;;;;;;4.75;3.30;;;3.80;99.90;;;;;;5053684;28;20113;-77
2022/04/17 05:57:00;;;;;;;5.15;2.97;;;3.90;99.90;;;;;;5052476;28;20090;-76
2022/04/17 05:59:25;;;;;;;5.88;3.30;;;4.00;99.90;;;;;;5052202;28;20032;-77
2022/04/17 06:01:51;;;;;;;5.80;3.42;;;4.30;99.90;;;;;;5053613;28;20035;-77
2022/04/17 06:04:17;;;;;;;4.47;2.40;;;4.50;99.90;;;;;;5053169;28;20025;-76
2022/04/17 06:06:43;;;;;;;4.43;2.88;;;4.70;99.90;;;;;;5053427;28;20093;-76
2022/04/17 06:09:09;;;;;;;4.30;2.90;;;4.80;99.60;;;;;;5051711;28;20029;-77
2022/04/17 06:11:34;;;;;;;3.80;2.72;;;5.00;98.90;;;;;;5052316;28;20086;-77
2022/04/17 06:14:00;;;;;;;3.88;2.67;;;5.20;97.40;;;;;;5052453;28;20527;-77
2022/04/17 06:16:26;;;;;;;6.25;2.70;;;5.30;96.90;;;;;;5053457;28;20580;-77
2022/04/17 06:18:51;;;;;;;6.22;2.30;;;5.40;96.40;;;;;;5053114;28;20047;-76
2022/04/17 06:21:20;;;;;;;5.82;2.42;;;5.50;95.80;;;;;;5051097;28;20581;-77
2022/04/17 06:23:45;;;;;;;6.40;2.35;;;5.70;95.00;;;;;;5052154;28;20044;-76
2022/04/17 06:26:11;;;;;;;3.22;2.22;;;5.80;94.60;;;;;;5052374;28;20029;-76
2022/04/17 06:28:37;;;;;;;3.85;1.98;;;5.90;93.50;;;;;;5053099;28;20087;-77
2022/04/17 06:31:04;;;;;;;3.15;2.40;;;6.00;92.40;;;;;;5052127;28;20025;-77
2022/04/17 06:33:30;;;;;;;2.78;2.13;;;6.20;92.70;;;;;;5051851;28;20039;-77
2022/04/17 06:35:55;;;;;;;4.32;2.75;;;6.20;91.70;;;;;;5052998;28;20119;-77
2022/04/17 06:38:21;;;;;;;5.28;2.30;;;6.20;92.20;;;;;;5052175;28;20067;-77
2022/04/17 06:40:47;;;;;;;3.33;2.15;;;6.30;91.60;;;;;;5052769;28;20558;-77
2022/04/17 06:43:12;;;;;;;3.92;2.42;;;6.50;90.90;;;;;;5051755;28;20422;-77
2022/04/17 06:45:40;;;;;;;4.65;2.58;;;6.60;90.40;;;;;;5052747;28;20035;-76
2022/04/17 06:48:15;;;;;;;5.10;2.25;;;6.80;89.30;;;;;;5051931;28;20021;-76
2022/04/17 06:50:44;;;;;;;3.80;1.83;;;6.90;88.80;;;;;;5051164;28;20480;-77
2022/04/17 06:53:10;;;;;;;4.68;2.30;;;6.90;86.40;;;;;;5052015;28;20051;-75
2022/04/17 06:55:36;;;;;;;3.25;2.00;;;7.00;85.80;;;;;;5052689;28;20051;-77
2022/04/17 06:58:02;;;;;;;5.68;2.38;;;7.10;84.80;;;;;;5051892;28;20025;-76
2022/04/17 07:00:27;;;;;;;3.40;2.28;;;7.20;83.50;;;;;;5052618;28;20352;-75
2022/04/17 07:02:54;;;;;;;4.90;2.08;;;7.30;83.10;;;;;;5052451;28;20478;-75
2022/04/17 07:05:20;;;;;;;2.47;1.80;;;7.40;81.40;;;;;;5051955;28;20029;-76
2022/04/17 07:07:46;;;;;;;3.42;2.13;;;7.50;81.90;;;;;;5051177;28;20127;-76
2022/04/17 07:10:12;;;;;;;2.63;1.83;;;7.50;82.30;;;;;;5051462;28;20036;-76
2022/04/17 07:12:37;;;;;;;2.95;1.95;;;7.70;81.10;;;;;;5052406;28;20043;-76
2022/04/17 07:15:06;;;;;;;3.33;1.98;;;7.90;78.30;;;;;;5051489;28;20099;-77
2022/04/17 07:17:39;;;;;;;4.45;2.28;;;7.90;77.50;;;;;;5052596;28;20033;-76
2022/04/17 07:20:06;;;;;;;2.95;1.90;;;8.00;76.80;;;;;;5051460;28;20040;-77
2022/04/17 07:22:37;;;;;;;3.30;1.95;;;8.00;77.00;;;;;;5051880;28;20496;-77
2022/04/17 07:25:05;;;;;;;3.63;1.90;;;8.20;84.60;;;;;;5050403;28;20048;-77
2022/04/17 07:27:39;;;;;;;5.03;2.22;;;8.20;76.10;;;;;;5052106;28;20033;-77
2022/04/17 07:30:19;;;;;;;4.72;1.80;;;8.30;75.60;;;;;;5051687;28;20031;-77
2022/04/17 07:32:48;;;;;;;3.95;1.90;;;8.40;73.30;;;;;;5050529;28;20053;-77
2022/04/17 07:35:15;;;;;;;4.22;1.80;;;8.60;74.00;;;;;;5051191;28;20021;-77
2022/04/17 07:37:46;;;;;;;4.75;1.80;;;8.70;73.40;;;;;;5052144;28;20029;-76
2022/04/17 07:40:17;;;;;;;3.53;2.08;;;8.80;72.10;;;;;;5051043;28;20070;-77
2022/04/17 07:42:44;;;;;;;4.80;1.70;;;8.90;71.60;;;;;;5051948;28;20021;-78
2022/04/17 07:45:11;;;;;;;2.78;1.58;;;9.00;70.40;;;;;;5050830;28;20040;-78
2022/04/17 07:47:36;;;;;;;2.80;1.67;;;9.00;69.80;;;;;;5051927;28;20032;-77
2022/04/17 07:50:05;;;;;;;2.75;1.73;;;9.10;69.30;;;;;;5050319;28;20033;-78
2022/04/17 07:52:30;;;;;;;3.60;1.63;;;9.20;67.60;;;;;;5051435;28;20477;-77
2022/04/17 07:54:56;;;;;;;3.55;1.70;;;9.30;67.00;;;;;;5051871;28;20163;-77
2022/04/17 07:57:22;;;;;;;3.28;1.90;;;9.30;67.20;;;;;;5050980;28;20116;-77
2022/04/17 07:59:50;;;;;;;4.57;1.70;;;9.50;65.30;;;;;;5051930;28;20096;-77
2022/04/17 08:02:22;;;;;;;1.83;1.60;;;9.60;65.20;;;;;;5049871;28;20052;-77
2022/04/17 08:04:51;;;;;;;3.45;1.80;;;9.70;65.70;;;;;;5050688;28;20048;-77
2022/04/17 08:07:19;;;;;;;4.20;1.67;;;9.80;64.50;;;;;;5051024;28;20036;-75
2022/04/17 08:09:45;;;;;;;2.42;1.85;;;9.90;64.50;;;;;;5050596;28;20532;-77
2022/04/17 08:12:11;;;;;;;2.50;1.73;;;10.00;64.70;;;;;;5050933;28;20021;-78
2022/04/17 08:14:36;;;;;;;2.40;1.75;;;10.10;64.40;;;;;;5050599;28;20482;-77
2022/04/17 08:17:02;;;;;;;2.47;1.52;;;10.30;63.50;;;;;;5051337;28;20116;-77
2022/04/17 08:19:29;;;;;;;3.00;1.67;;;10.40;62.80;;;;;;5049531;28;20024;-77
2022/04/17 08:21:55;;;;;;;2.33;1.60;;;10.40;62.70;;;;;;5051147;28;20021;-77
2022/04/17 08:24:21;;;;;;;3.47;2.00;;;10.50;62.50;;;;;;5051011;28;20378;-76
2022/04/17 08:26:47;;;;;;;2.80;1.63;;;10.70;62.40;;;;;;5051661;28;20039;-74
2022/04/17 08:29:13;;;;;;;2.78;1.70;;;10.80;60.20;;;;;;5050717;28;20108;-75
2022/04/17 08:31:39;;;;;;;3.03;1.80;;;10.90;60.10;;;;;;5051276;28;20142;-75
2022/04/17 08:34:04;;;;;;;2.47;1.88;;;10.80;60.30;;;;;;5054185;28;20067;-76
2022/04/17 08:36:30;;;;;;;2.63;1.60;;;10.80;59.90;;;;;;5053537;28;20037;-76
2022/04/17 08:38:56;;;;;;;2.35;1.42;;;10.80;60.50;;;;;;5054011;28;20463;-76
2022/04/17 08:41:22;;;;;;;2.28;1.65;;;10.90;61.30;;;;;;5054195;28;20033;-76
2022/04/17 08:43:48;;;;;;;5.03;1.60;;;11.00;61.30;;;;;;5055272;28;20033;-76
2022/04/17 08:46:14;;;;;;;3.35;1.70;;;11.00;61.80;;;;;;5053057;28;20029;-76
2022/04/17 08:48:39;;;;;;;5.20;1.67;;;11.10;59.30;;;;;;5055123;28;20040;-76
2022/04/17 08:51:05;;;;;;;2.83;1.52;;;11.20;58.80;;;;;;5054226;28;20448;-76
2022/04/17 08:53:36;;;;;;;3.45;1.35;;;11.30;58.20;;;;;;5054650;28;20033;-76
2022/04/17 08:56:03;;;;;;;2.75;1.70;;;11.40;59.30;;;;;;5054822;28;20124;-74
2022/04/17 08:58:30;;;;;;;2.28;1.52;;;11.50;61.40;;;;;;5052844;28;20033;-75
2022/04/17 09:00:55;;;;;;;3.58;1.38;;;11.60;59.60;;;;;;5054755;28;20025;-75
2022/04/17 09:03:22;;;;;;;3.10;1.58;;;11.70;57.30;;;;;;5054212;28;20036;-75
2022/04/17 09:05:48;;;;;;;2.22;1.40;;;11.70;56.70;;;;;;5054742;28;20025;-76
2022/04/17 09:08:16;;;;;;;3.78;1.73;;;11.60;57.70;;;;;;5053822;28;20029;-76
2022/04/17 09:10:55;;;;;;;2.85;1.73;;;11.70;58.80;;;;;;5054875;28;20385;-75
2022/04/17 09:13:33;;;;;;;4.80;1.50;;;11.90;58.10;;;;;;5053936;28;20048;-76
2022/04/17 09:16:03;;;;;;;2.60;1.30;;;11.90;56.50;;;;;;5054542;28;20041;-76
2022/04/17 09:18:31;;;;;;;2.05;1.23;;;12.00;57.10;;;;;;5052601;28;20029;-75
2022/04/17 09:20:58;;;;;;;2.80;1.13;;;12.20;55.00;;;;;;5053122;28;20043;-76
2022/04/17 09:23:38;;;;;;;4.00;1.50;;;12.20;53.70;;;;;;5053397;28;20478;-76
2022/04/17 09:26:07;;;;;;;2.75;1.63;;;12.30;54.10;;;;;;5054436;28;20118;-77
2022/04/17 09:28:35;;;;;;;2.23;1.47;;;12.40;55.00;;;;;;5054149;28;20021;-76
2022/04/17 09:31:08;;;;;;;2.85;1.58;;;12.60;54.20;;;;;;5053280;28;20025;-75
2022/04/17 09:33:38;;;;;;;1.85;1.20;;;12.70;54.10;;;;;;5053756;28;20104;-75
2022/04/17 09:36:05;;;;;;;2.47;1.80;;;12.80;54.50;;;;;;5054197;28;20032;-76
2022/04/17 09:38:33;;;;;;;2.45;1.17;;;12.90;53.30;;;;;;5053330;28;20558;-76
2022/04/17 09:41:10;;;;;;;3.58;1.80;;;13.00;54.10;;;;;;5054128;28;20462;-76
2022/04/17 09:43:36;;;;;;;2.08;1.60;;;13.00;53.10;;;;;;5053480;28;20458;-77
2022/04/17 09:46:09;;;;;;;2.10;1.55;;;13.10;52.90;;;;;;5053270;28;20029;-76
2022/04/17 09:48:43;;;;;;;2.75;1.52;;;13.30;53.80;;;;;;5053669;28;20028;-76
2022/04/17 09:51:22;;;;;;;2.72;1.45;;;13.40;53.40;;;;;;5052018;28;20067;-76
2022/04/17 09:54:07;;;;;;;3.35;2.00;;;13.40;52.80;;;;;;5053691;28;20482;-76
2022/04/17 09:56:43;;;;;;;3.28;2.00;;;13.60;51.80;;;;;;5051902;28;20160;-76
2022/04/17 09:59:21;;;;;;;1.92;1.40;;;13.70;51.60;;;;;;5052504;28;20025;-77
2022/04/17 10:01:55;;;;;;;2.63;1.38;;;13.90;51.70;;;;;;5053703;28;20044;-76
2022/04/17 10:04:24;;;;;;;2.47;1.38;;;14.00;51.50;;;;;;5053204;28;20025;-77
2022/04/17 10:06:52;;;;;;;2.42;2.00;;;14.10;52.10;;;;;;5053395;28;20025;-76
2022/04/17 10:09:18;;;;;;;2.80;1.80;;;14.00;50.70;;;;;;5052621;28;20417;-77
2022/04/17 10:11:45;;;;;;;2.70;1.50;;;14.00;51.70;;;;;;5053322;28;20031;-77
2022/04/17 10:14:11;;;;;;;2.42;1.90;;;14.00;51.40;;;;;;5052894;28;20458;-76
2022/04/17 10:16:41;;;;;;;1.35;1.15;;;13.70;51.40;;;;;;5051852;28;20057;-77
2022/04/17 10:19:13;;;;;;;1.08;0.98;;;13.70;51.60;;;;;;5053665;28;20383;-76
2022/04/17 10:21:40;;;;;;;1.77;1.17;;;13.70;51.80;;;;;;5053232;28;20028;-77
2022/04/17 10:24:10;;;;;;;4.28;1.65;;;13.90;52.20;;;;;;5052015;28;20033;-77
2022/04/17 10:26:45;;;;;;;1.70;1.25;;;14.20;52.10;;;;;;5052686;28;20033;-76
2022/04/17 10:29:34;;;;;;;4.72;1.70;;;14.10;52.10;;;;;;5051674;28;20068;-76
2022/04/17 10:32:30;;;;;;;2.45;1.35;;;14.00;50.90;;;;;;5041787;28;20072;-76
2022/04/17 10:35:33;;;;;;;1.50;1.23;;;14.00;51.30;;;;;;5053216;28;20056;-77
2022/04/17 10:38:23;;;;;;;2.60;1.50;;;14.20;50.70;;;;;;5035179;28;20383;-73
2022/04/17 10:41:09;;;;;;;1.30;1.20;;;14.30;50.40;;;;;;5051872;28;20025;-76
2022/04/17 10:43:47;;;;;;;1.38;1.23;;;14.40;48.90;;;;;;5052041;28;20037;-76
2022/04/17 10:46:16;;;;;;;1.40;1.30;;;14.50;48.70;;;;;;5052269;28;20059;-75
2022/04/17 10:48:50;;;;;;;4.25;1.40;;;14.30;50.00;;;;;;5051773;28;20136;-75
2022/04/17 10:51:22;;;;;;;3.30;1.60;;;14.40;49.80;;;;;;5050464;28;20118;-76
2022/04/17 10:53:57;;;;;;;1.25;1.00;;;14.60;49.60;;;;;;5052860;28;20037;-76
2022/04/17 10:56:23;;;;;;;3.28;1.40;;;14.80;48.80;;;;;;5051663;28;20068;-75
2022/04/17 10:58:57;;;;;;;3.60;1.08;;;15.00;49.00;;;;;;5052725;28;20052;-75
2022/04/17 11:01:41;;;;;;;3.10;1.27;;;15.20;47.50;;;;;;5051788;28;20021;-75
2022/04/17 11:04:27;;;;;;;3.90;1.52;;;15.40;46.80;;;;;;5051474;28;20025;-77
2022/04/17 11:07:14;;;;;;;2.13;1.00;;;15.60;46.50;;;;;;5052556;28;20025;-77
2022/04/17 11:09:42;;;;;;;1.42;1.27;;;15.80;45.50;;;;;;5051890;28;20071;-76
2022/04/17 11:12:17;;;;;;;2.05;1.20;;;15.90;45.70;;;;;;5052384;28;20032;-77
2022/04/17 11:14:56;;;;;;;2.25;1.15;;;16.00;46.50;;;;;;5052671;28;20029;-77
2022/04/17 11:17:23;;;;;;;2.30;1.00;;;16.10;44.90;;;;;;5050185;28;20040;-77
2022/04/17 11:19:52;;;;;;;1.48;1.00;;;16.20;45.10;;;;;;5051040;28;20035;-77
2022/04/17 11:22:18;;;;;;;3.70;1.15;;;16.40;44.50;;;;;;5051532;28;20036;-77
2022/04/17 11:24:57;;;;;;;2.55;1.20;;;16.50;44.10;;;;;;5052257;28;20033;-75
2022/04/17 11:28:02;;;;;;;2.95;0.90;;;16.60;44.10;;;;;;5051314;28;20021;-76
2022/04/17 11:30:28;;;;;;;3.58;1.40;;;16.90;43.70;;;;;;5029035;28;20671;-75
2022/04/17 11:32:55;;;;;;;1.88;1.00;;;16.90;42.60;;;;;;5013420;28;20029;-75
2022/04/17 11:35:24;;;;;;;1.73;1.30;;;16.80;42.50;;;;;;5028883;28;20116;-75
2022/04/17 11:37:59;;;;;;;1.17;1.08;;;16.70;43.60;;;;;;5030067;28;20075;-75
2022/04/17 11:40:27;;;;;;;1.88;1.20;;;16.60;43.10;;;;;;5028985;28;20096;-75
2022/04/17 11:42:54;;;;;;;2.80;1.40;;;16.30;42.60;;;;;;5029781;28;20041;-74
2022/04/17 11:45:25;;;;;;;3.03;1.30;;;16.20;44.10;;;;;;5028814;28;20030;-75
2022/04/17 11:47:53;;;;;;;2.22;1.27;;;16.40;43.30;;;;;;5029770;28;20475;-75
2022/04/17 11:50:27;;;;;;;0.95;0.80;;;16.60;43.10;;;;;;5028774;28;20104;-76
2022/04/17 11:52:56;;;;;;;4.30;1.50;;;16.90;42.10;;;;;;5029466;28;20049;-75
2022/04/17 11:55:39;;;;;;;5.82;1.40;;;17.30;41.90;;;;;;5028512;28;20471;-76
2022/04/17 11:58:09;;;;;;;3.30;1.73;;;17.20;42.10;;;;;;5029549;28;20025;-75
2022/04/17 12:00:35;;;;;;;2.80;1.02;;;17.10;44.00;;;;;;5034367;28;20041;-76
2022/04/17 12:03:02;;;;;;;2.08;1.17;;;17.10;42.80;;;;;;5051713;28;20024;-76
2022/04/17 12:05:29;;;;;;;3.42;1.70;;;17.10;42.10;;;;;;5050853;28;20033;-75
2022/04/17 12:08:13;;;;;;;2.38;1.40;;;17.30;42.30;;;;;;5053047;28;20029;-74
2022/04/17 12:10:41;;;;;;;2.28;1.25;;;17.30;42.90;;;;;;5053535;28;20744;-75
2022/04/17 12:13:20;;;;;;;2.53;1.42;;;17.30;42.60;;;;;;5054372;28;20032;-75
2022/04/17 12:15:57;;;;;;;4.03;1.40;;;17.10;44.20;;;;;;5055647;28;20097;-76
2022/04/17 12:18:23;;;;;;;2.47;1.60;;;17.30;43.40;;;;;;5055185;28;20355;-76
2022/04/17 12:21:03;;;;;;;1.42;1.33;;;17.70;43.40;;;;;;5055589;28;20104;-75
2022/04/17 12:23:29;;;;;;;1.33;1.20;;;18.00;42.50;;;;;;5053541;28;20090;-77
2022/04/17 12:25:56;;;;;;;1.48;1.13;;;18.30;41.50;;;;;;5055412;28;20048;-75
2022/04/17 12:28:22;;;;;;;4.22;1.15;;;18.40;40.40;;;;;;5054550;28;20025;-76
2022/04/17 12:30:48;;;;;;;1.73;1.25;;;18.20;40.70;;;;;;5055655;28;20055;-75
2022/04/17 12:33:26;;;;;;;1.00;0.90;;;18.00;41.00;;;;;;5055588;28;20100;-75
2022/04/17 12:36:22;;;;;;;2.22;1.08;;;18.00;41.30;;;;;;5055468;28;20029;-75
2022/04/17 12:38:58;;;;;;;1.73;1.15;;;18.40;41.20;;;;;;5050476;28;20470;-75
2022/04/17 12:41:28;;;;;;;1.58;0.95;;;18.70;40.20;;;;;;5054434;28;20378;-75
2022/04/17 12:43:54;;;;;;;;;;;18.90;40.20;;;;;;5054604;28;20025;-75
2022/04/17 12:46:30;;;;;;;4.00;1.17;;;19.10;40.00;;;;;;5056175;28;19912;-76
2022/04/17 12:49:15;;;;;;;1.90;1.13;;;19.30;41.50;;;;;;5054111;28;20112;-74
2022/04/17 12:51:54;;;;;;;2.30;1.23;;;19.10;40.10;;;;;;5053885;28;20037;-75
2022/04/17 12:54:19;;;;;;;2.50;1.20;;;19.20;40.10;;;;;;5054716;28;20075;-75
2022/04/17 12:56:47;;;;;;;5.38;1.10;;;19.30;43.20;;;;;;5054446;28;20386;-76
2022/04/17 12:59:18;;;;;;;1.30;1.10;;;19.20;40.80;;;;;;5053538;28;20083;-75
2022/04/17 13:01:48;;;;;;;1.38;0.95;;;19.30;39.30;;;;;;5054065;28;20027;-75
2022/04/17 13:04:23;;;;;;;1.23;0.80;;;19.30;39.60;;;;;;5054912;28;20092;-75
2022/04/17 13:07:04;;;;;;;1.00;0.90;;;19.50;39.70;;;;;;5054805;28;20041;-75
2022/04/17 13:09:29;;;;;;;2.65;1.23;;;19.40;39.90;;;;;;5053700;28;20122;-76
2022/04/17 13:11:55;;;;;;;1.55;1.05;;;19.30;40.30;;;;;;5054513;28;20056;-76